Time;durP1;ratioP1;P1;durP2;ratioP2;P2;SDS_P1;SDS_P2;PMS_P1;PMS_P2;Temp;Humidity;BMP_temperature;BMP_pressure;BME280_temperature;BME280_humidity;BME280_pressure;Samples;Min_cycle;Max_cycle;Signal;HPM_P1;HPM_P2
2024/01/31 00:00:17;;;;;;;3.37;3.00;;;20.80;52.70;;;;;;5093278;28;20226;-69
2024/01/31 00:02:42;;;;;;;3.07;2.80;;;20.80;52.80;;;;;;5093383;28;20178;-68
2024/01/31 00:05:08;;;;;;;3.33;3.03;;;20.80;52.80;;;;;;5093221;28;20907;-69
2024/01/31 00:07:33;;;;;;;4.03;3.63;;;20.80;52.80;;;;;;5093192;28;20201;-69
2024/01/31 00:09:59;;;;;;;3.40;3.10;;;20.80;52.80;;;;;;5092941;28;20198;-70
2024/01/31 00:12:27;;;;;;;3.40;3.10;;;20.80;52.80;;;;;;5074999;28;20602;-68
2024/01/31 00:14:53;;;;;;;3.60;3.17;;;20.80;52.80;;;;;;5093369;28;20173;-68
2024/01/31 00:17:18;;;;;;;3.73;3.30;;;20.80;52.80;;;;;;5092911;28;20464;-69
2024/01/31 00:19:44;;;;;;;3.13;2.83;;;20.70;53.30;;;;;;5093244;28;20170;-68
2024/01/31 00:22:09;;;;;;;3.47;3.17;;;20.70;52.70;;;;;;5092802;28;20174;-69
2024/01/31 00:24:35;;;;;;;3.33;3.03;;;20.70;52.80;;;;;;5092945;28;20166;-69
2024/01/31 00:27:00;;;;;;;3.33;3.00;;;20.70;52.80;;;;;;5092695;28;20546;-69
2024/01/31 00:29:26;;;;;;;3.97;2.83;;;20.70;52.80;;;;;;5092595;28;20264;-69
2024/01/31 00:31:52;;;;;;;3.37;3.07;;;20.70;52.80;;;;;;5092681;28;20208;-69
2024/01/31 00:34:17;;;;;;;3.03;2.77;;;20.70;52.80;;;;;;5092813;28;20173;-70
2024/01/31 00:36:43;;;;;;;2.73;2.53;;;20.70;53.30;;;;;;5092614;28;20282;-70
2024/01/31 00:39:10;;;;;;;3.20;2.90;;;20.70;52.80;;;;;;5092492;28;20201;-70
2024/01/31 00:41:35;;;;;;;3.23;2.93;;;20.70;52.80;;;;;;5092425;28;20178;-70
2024/01/31 00:44:01;;;;;;;4.60;3.27;;;20.70;52.80;;;;;;5091924;28;20414;-71
2024/01/31 00:46:27;;;;;;;3.67;3.30;;;20.70;53.30;;;;;;5091782;28;20246;-69
2024/01/31 00:48:53;;;;;;;3.43;3.13;;;20.70;52.80;;;;;;5092614;28;20235;-69
2024/01/31 00:51:19;;;;;;;3.10;2.80;;;20.70;52.80;;;;;;5092287;28;20481;-69
2024/01/31 00:53:44;;;;;;;3.77;3.03;;;20.70;52.80;;;;;;5092433;28;20918;-70
2024/01/31 00:56:10;;;;;;;3.50;3.20;;;20.70;52.80;;;;;;5092183;28;20194;-69
2024/01/31 00:58:36;;;;;;;2.80;2.60;;;20.70;52.80;;;;;;5092288;28;20176;-69
2024/01/31 01:01:01;;;;;;;4.37;3.57;;;20.70;52.80;;;;;;5092263;28;20212;-69
2024/01/31 01:03:27;;;;;;;2.63;2.43;;;20.70;52.80;;;;;;5091997;28;20629;-69
2024/01/31 01:05:52;;;;;;;3.40;3.10;;;20.60;52.70;;;;;;5092276;28;20173;-70
2024/01/31 01:08:19;;;;;;;3.23;2.90;;;20.70;52.90;;;;;;5092291;28;20165;-70
2024/01/31 01:10:44;;;;;;;3.13;2.80;;;20.70;52.80;;;;;;5091958;28;20575;-70
2024/01/31 01:13:10;;;;;;;3.40;3.10;;;20.60;52.70;;;;;;5073681;28;20408;-70
2024/01/31 01:15:35;;;;;;;3.33;3.00;;;20.60;52.70;;;;;;5091868;28;20717;-70
2024/01/31 01:18:01;;;;;;;3.53;2.77;;;20.70;52.80;;;;;;5091849;28;20193;-70
2024/01/31 01:20:27;;;;;;;3.23;2.93;;;20.60;52.80;;;;;;5091787;28;20269;-70
2024/01/31 01:22:55;;;;;;;3.13;2.70;;;20.60;52.80;;;;;;5091951;28;20177;-70
2024/01/31 01:25:20;;;;;;;3.50;2.80;;;20.60;52.80;;;;;;5091966;28;20788;-70
2024/01/31 01:27:50;;;;;;;3.40;2.90;;;20.60;52.80;;;;;;5091764;28;20411;-68
2024/01/31 01:30:18;;;;;;;3.20;2.90;;;20.60;52.80;;;;;;5091672;28;20221;-70
2024/01/31 01:32:43;;;;;;;3.50;3.20;;;20.60;52.80;;;;;;5091768;28;20427;-70
2024/01/31 01:35:09;;;;;;;2.80;2.60;;;20.60;52.80;;;;;;5091819;28;20415;-70
2024/01/31 01:37:34;;;;;;;3.30;3.00;;;20.60;52.80;;;;;;5091724;28;20668;-69
2024/01/31 01:40:00;;;;;;;3.47;3.00;;;20.60;52.80;;;;;;5091579;28;20193;-69
2024/01/31 01:42:25;;;;;;;3.03;2.73;;;20.60;52.80;;;;;;5091556;28;20162;-68
2024/01/31 01:44:51;;;;;;;3.00;2.80;;;20.60;52.80;;;;;;5091289;28;20592;-69
2024/01/31 01:47:18;;;;;;;3.70;2.83;;;20.60;52.80;;;;;;5091511;28;20205;-69
2024/01/31 01:49:45;;;;;;;3.87;3.20;;;20.60;52.80;;;;;;5091321;28;20170;-68
2024/01/31 01:52:12;;;;;;;3.60;3.30;;;20.60;52.80;;;;;;5091203;28;20756;-70
2024/01/31 01:54:39;;;;;;;2.90;2.70;;;20.60;52.80;;;;;;5091250;28;20411;-70
2024/01/31 01:57:05;;;;;;;3.57;3.27;;;20.60;52.80;;;;;;5090904;28;20447;-69
2024/01/31 01:59:32;;;;;;;3.47;3.07;;;20.60;52.80;;;;;;5091126;28;20404;-70
2024/01/31 02:01:59;;;;;;;3.90;2.57;;;20.60;52.80;;;;;;5091256;28;20418;-70
2024/01/31 02:04:24;;;;;;;2.83;2.63;;;20.60;52.80;;;;;;5091282;28;20400;-68
2024/01/31 02:06:51;;;;;;;4.13;3.20;;;20.60;52.80;;;;;;5091101;28;20411;-69
2024/01/31 02:09:17;;;;;;;3.00;2.70;;;20.60;52.80;;;;;;5091184;28;20652;-69
2024/01/31 02:11:44;;;;;;;3.10;2.70;;;20.60;52.80;;;;;;5091228;28;20431;-69
2024/01/31 02:14:09;;;;;;;3.57;3.27;;;20.60;52.80;;;;;;5091191;28;20416;-69
2024/01/31 02:16:35;;;;;;;3.57;2.97;;;20.60;52.80;;;;;;5090988;28;20466;-70
2024/01/31 02:19:02;;;;;;;2.77;2.57;;;20.60;52.80;;;;;;5090934;28;20229;-68
2024/01/31 02:21:28;;;;;;;3.17;2.87;;;20.60;52.80;;;;;;5072810;28;20485;-70
2024/01/31 02:23:54;;;;;;;4.30;3.27;;;20.60;52.80;;;;;;5091296;28;20192;-69
2024/01/31 02:26:20;;;;;;;3.30;3.00;;;20.60;52.80;;;;;;5090982;28;20403;-70
2024/01/31 02:28:45;;;;;;;3.03;2.83;;;20.60;52.80;;;;;;5091092;28;20174;-68
2024/01/31 02:31:11;;;;;;;3.07;2.77;;;20.60;52.80;;;;;;5090840;28;20243;-69
2024/01/31 02:33:37;;;;;;;3.73;3.03;;;20.60;52.80;;;;;;5091035;28;20178;-70
2024/01/31 02:36:02;;;;;;;3.33;2.50;;;20.50;52.80;;;;;;5072713;28;20177;-70
2024/01/31 02:38:28;;;;;;;3.20;2.67;;;20.60;52.80;;;;;;5090896;28;20236;-70
2024/01/31 02:40:53;;;;;;;3.00;2.67;;;20.60;52.80;;;;;;5090947;28;20212;-70
2024/01/31 02:43:19;;;;;;;2.80;2.60;;;20.60;52.90;;;;;;5090781;28;20177;-69
2024/01/31 02:45:45;;;;;;;2.90;2.70;;;20.60;52.80;;;;;;5090823;28;20233;-70
2024/01/31 02:48:10;;;;;;;3.03;2.73;;;20.60;52.90;;;;;;5072501;28;20181;-70
2024/01/31 02:50:36;;;;;;;3.20;2.90;;;20.60;52.90;;;;;;5090611;28;20193;-69
2024/01/31 02:53:01;;;;;;;3.10;2.80;;;20.60;52.90;;;;;;5090752;28;20227;-69
2024/01/31 02:55:27;;;;;;;2.97;2.77;;;20.50;52.80;;;;;;5090721;28;20668;-70
2024/01/31 02:57:52;;;;;;;3.20;2.90;;;20.50;52.80;;;;;;5090901;28;20213;-69
2024/01/31 03:00:19;;;;;;;2.93;2.73;;;20.50;52.80;;;;;;5090467;28;20190;-70
2024/01/31 03:02:44;;;;;;;2.93;2.63;;;20.50;52.80;;;;;;5090644;28;20641;-70
2024/01/31 03:05:11;;;;;;;2.80;2.60;;;20.50;52.80;;;;;;5090601;28;20414;-70
2024/01/31 03:07:37;;;;;;;3.07;2.73;;;20.50;52.80;;;;;;5090851;28;20257;-70
2024/01/31 03:10:03;;;;;;;3.20;2.90;;;20.50;52.80;;;;;;5094598;28;20523;-70
2024/01/31 03:12:29;;;;;;;3.47;3.17;;;20.50;52.80;;;;;;5094443;28;20227;-70
2024/01/31 03:14:54;;;;;;;2.63;2.43;;;20.50;53.40;;;;;;5094316;28;20986;-70
2024/01/31 03:17:20;;;;;;;3.20;2.70;;;20.50;52.80;;;;;;5094245;28;20582;-71
2024/01/31 03:19:45;;;;;;;2.70;2.50;;;20.50;52.80;;;;;;5094438;28;20204;-69
2024/01/31 03:22:11;;;;;;;3.10;2.80;;;20.50;52.80;;;;;;5094191;28;20191;-70
2024/01/31 03:24:38;;;;;;;2.60;2.40;;;20.50;52.80;;;;;;5094263;28;20180;-70
2024/01/31 03:27:04;;;;;;;3.40;3.10;;;20.50;52.80;;;;;;5094064;28;20184;-68
2024/01/31 03:29:30;;;;;;;3.03;2.73;;;20.50;52.80;;;;;;5094403;28;20419;-69
2024/01/31 03:31:57;;;;;;;3.20;2.90;;;20.50;52.80;;;;;;5093875;28;20470;-69
2024/01/31 03:34:23;;;;;;;2.40;2.20;;;20.50;52.80;;;;;;5094140;28;20182;-69
2024/01/31 03:36:48;;;;;;;2.70;2.50;;;20.50;52.80;;;;;;5093941;28;20462;-69
2024/01/31 03:39:14;;;;;;;2.90;2.70;;;20.50;52.90;;;;;;5093891;28;20830;-69
2024/01/31 03:41:49;;;;;;;2.40;2.20;;;20.50;52.80;;;;;;5093771;28;20219;-69
2024/01/31 03:44:14;;;;;;;3.07;2.77;;;20.50;52.80;;;;;;5093717;28;20189;-70
2024/01/31 03:46:40;;;;;;;3.00;2.70;;;20.50;52.80;;;;;;5093798;28;20992;-69
2024/01/31 03:49:05;;;;;;;2.60;2.40;;;20.50;52.80;;;;;;5093863;28;20173;-70
2024/01/31 03:51:31;;;;;;;2.60;2.40;;;20.50;52.80;;;;;;5093617;28;20204;-69
2024/01/31 03:53:57;;;;;;;2.80;2.60;;;20.50;52.90;;;;;;5093736;28;20608;-70
2024/01/31 03:56:22;;;;;;;2.83;2.63;;;20.50;52.80;;;;;;5093477;28;20551;-69
2024/01/31 03:58:48;;;;;;;2.90;2.50;;;20.50;52.90;;;;;;5093467;28;20587;-69
2024/01/31 04:01:15;;;;;;;2.60;2.37;;;20.50;52.80;;;;;;5093340;28;20193;-69
2024/01/31 04:03:42;;;;;;;2.63;2.43;;;20.50;52.90;;;;;;5093279;28;20177;-69
2024/01/31 04:06:08;;;;;;;2.90;2.70;;;20.50;52.80;;;;;;5093252;28;20404;-69
2024/01/31 04:08:34;;;;;;;2.40;2.20;;;20.50;52.80;;;;;;5093585;28;20497;-69
2024/01/31 04:10:59;;;;;;;2.90;2.60;;;20.50;52.80;;;;;;5093517;28;20190;-70
2024/01/31 04:13:25;;;;;;;2.70;2.50;;;20.50;52.90;;;;;;5093245;28;20597;-69
2024/01/31 04:15:50;;;;;;;2.87;2.67;;;20.50;52.90;;;;;;5093240;28;20189;-70
2024/01/31 04:18:16;;;;;;;2.30;2.10;;;20.50;52.90;;;;;;5092980;28;20586;-69
2024/01/31 04:20:41;;;;;;;2.60;2.40;;;20.50;52.90;;;;;;5092726;28;20220;-70
2024/01/31 04:23:07;;;;;;;3.30;3.00;;;20.50;52.80;;;;;;5074709;28;20185;-69
2024/01/31 04:25:33;;;;;;;3.10;2.73;;;20.50;52.80;;;;;;5092843;28;20173;-70
2024/01/31 04:27:59;;;;;;;2.50;2.30;;;20.50;52.90;;;;;;5092779;28;20177;-70
2024/01/31 04:30:24;;;;;;;2.60;2.40;;;20.50;52.80;;;;;;5092765;28;20504;-69
2024/01/31 04:32:50;;;;;;;2.37;2.17;;;20.50;52.80;;;;;;5092776;28;20178;-69
2024/01/31 04:35:16;;;;;;;2.70;2.40;;;20.50;52.80;;;;;;5074551;28;20181;-70
2024/01/31 04:37:42;;;;;;;2.40;2.20;;;20.50;52.80;;;;;;5092640;28;20239;-70
2024/01/31 04:40:08;;;;;;;2.40;2.20;;;20.50;52.80;;;;;;5092493;28;20267;-70
2024/01/31 04:42:34;;;;;;;2.40;2.10;;;20.50;52.80;;;;;;5092541;28;20263;-70
2024/01/31 04:45:00;;;;;;;3.30;2.53;;;20.50;52.80;;;;;;5092501;28;20412;-70
2024/01/31 04:47:25;;;;;;;2.50;2.30;;;20.50;52.90;;;;;;5092362;28;20281;-69
2024/01/31 04:50:01;;;;;;;3.67;2.63;;;20.50;52.80;;;;;;5092268;28;20596;-69
2024/01/31 04:52:26;;;;;;;2.80;2.50;;;20.50;52.80;;;;;;5092559;28;20157;-70
2024/01/31 04:54:53;;;;;;;2.13;1.90;;;20.50;52.80;;;;;;5074043;28;20435;-69
2024/01/31 04:57:18;;;;;;;3.00;2.80;;;20.50;52.80;;;;;;5092486;28;20611;-69
2024/01/31 04:59:44;;;;;;;3.57;2.70;;;20.50;52.90;;;;;;5092834;28;20408;-70
2024/01/31 05:02:10;;;;;;;3.50;2.63;;;20.50;52.90;;;;;;5092298;28;20411;-68
2024/01/31 05:04:36;;;;;;;2.60;2.40;;;20.50;52.80;;;;;;5092012;28;20174;-69
2024/01/31 05:07:03;;;;;;;2.40;2.20;;;20.50;52.80;;;;;;5092071;28;20416;-69
2024/01/31 05:09:29;;;;;;;2.50;2.30;;;20.50;52.90;;;;;;5092088;28;20426;-69
2024/01/31 05:11:55;;;;;;;2.23;2.03;;;20.50;52.80;;;;;;5091953;28;20525;-70
2024/01/31 05:14:20;;;;;;;2.27;2.07;;;20.50;52.80;;;;;;5092176;28;20408;-69
2024/01/31 05:16:46;;;;;;;2.90;2.60;;;20.50;52.80;;;;;;5091739;28;20205;-70
2024/01/31 05:19:12;;;;;;;2.77;2.57;;;20.50;52.80;;;;;;5073801;28;20315;-69
2024/01/31 05:21:50;;;;;;;2.87;2.30;;;20.50;52.80;;;;;;5091858;28;20189;-69
2024/01/31 05:24:17;;;;;;;2.73;2.33;;;20.50;52.80;;;;;;5073641;28;20174;-70
2024/01/31 05:26:45;;;;;;;2.70;2.40;;;20.50;52.80;;;;;;5091934;28;20412;-70
2024/01/31 05:29:10;;;;;;;2.60;2.40;;;20.60;52.90;;;;;;5091742;28;20460;-70
2024/01/31 05:31:36;;;;;;;2.20;2.00;;;20.50;52.70;;;;;;5091108;28;20930;-69
2024/01/31 05:34:02;;;;;;;2.13;1.93;;;20.60;52.80;;;;;;5073390;28;20185;-68
2024/01/31 05:36:27;;;;;;;2.87;2.57;;;20.60;52.80;;;;;;5091505;28;20218;-69
2024/01/31 05:38:53;;;;;;;2.63;2.43;;;20.60;52.80;;;;;;5091539;28;20274;-69
2024/01/31 05:41:18;;;;;;;2.23;2.03;;;20.60;52.80;;;;;;5091508;28;20557;-69
2024/01/31 05:43:45;;;;;;;2.80;2.60;;;20.60;52.80;;;;;;5091703;28;20674;-70
2024/01/31 05:46:11;;;;;;;2.37;2.03;;;20.60;52.80;;;;;;5091657;28;20600;-69
2024/01/31 05:48:36;;;;;;;3.03;2.73;;;20.60;52.70;;;;;;5091638;28;20395;-70
2024/01/31 05:51:02;;;;;;;2.30;2.10;;;20.60;52.70;;;;;;5091404;28;20181;-68
2024/01/31 05:53:27;;;;;;;2.80;2.50;;;20.50;52.70;;;;;;5091338;28;20244;-67
2024/01/31 05:55:53;;;;;;;3.30;2.43;;;20.60;52.80;;;;;;5091409;28;20640;-69
2024/01/31 05:58:19;;;;;;;2.40;2.20;;;20.60;52.80;;;;;;5091364;28;20205;-69
2024/01/31 06:00:49;;;;;;;3.17;2.47;;;20.60;52.70;;;;;;5091354;28;20193;-69
2024/01/31 06:03:15;;;;;;;3.13;2.37;;;20.60;52.80;;;;;;5091098;28;20170;-69
2024/01/31 06:05:41;;;;;;;2.30;2.10;;;20.60;52.70;;;;;;5091503;28;20482;-69
2024/01/31 06:08:07;;;;;;;3.10;2.80;;;20.60;52.70;;;;;;5091240;28;20854;-69
2024/01/31 06:10:33;;;;;;;2.60;2.40;;;20.50;52.70;;;;;;5090752;28;20431;-69
2024/01/31 06:12:58;;;;;;;2.40;2.17;;;20.60;52.70;;;;;;5091218;28;20181;-69
2024/01/31 06:15:25;;;;;;;2.87;2.67;;;20.60;52.70;;;;;;5091154;28;20174;-70
2024/01/31 06:17:51;;;;;;;2.77;2.57;;;20.60;52.70;;;;;;5091001;28;20193;-69
2024/01/31 06:20:17;;;;;;;2.27;2.07;;;20.60;52.70;;;;;;5090989;28;20847;-69
2024/01/31 06:22:42;;;;;;;2.10;1.90;;;20.60;52.80;;;;;;5072879;28;20169;-68
2024/01/31 06:25:08;;;;;;;2.80;2.60;;;20.60;52.80;;;;;;5090812;28;20407;-69
2024/01/31 06:27:36;;;;;;;2.70;2.40;;;20.60;52.80;;;;;;5084454;28;20170;-68
2024/01/31 06:30:03;;;;;;;2.33;2.13;;;20.60;52.80;;;;;;5070751;28;20202;-68
2024/01/31 06:32:34;;;;;;;2.40;2.20;;;20.60;52.80;;;;;;5070410;28;20413;-69
2024/01/31 06:35:00;;;;;;;2.50;2.30;;;20.60;52.80;;;;;;5070614;28;20457;-70
2024/01/31 06:37:27;;;;;;;2.90;2.30;;;20.60;52.80;;;;;;5070539;28;20460;-69
2024/01/31 06:39:54;;;;;;;2.30;2.10;;;20.70;52.90;;;;;;5070398;28;20429;-69
2024/01/31 06:42:19;;;;;;;2.60;2.40;;;20.70;52.90;;;;;;5070414;28;20905;-68
2024/01/31 06:44:45;;;;;;;2.40;2.20;;;20.70;52.80;;;;;;5074476;28;20504;-69
2024/01/31 06:47:11;;;;;;;2.67;2.47;;;20.70;52.80;;;;;;5056409;28;20209;-69
2024/01/31 06:49:36;;;;;;;3.00;2.10;;;20.70;52.80;;;;;;5074629;28;20546;-69
2024/01/31 06:52:02;;;;;;;2.07;1.83;;;20.80;52.90;;;;;;5074372;28;20179;-68
2024/01/31 06:54:28;;;;;;;2.80;2.60;;;20.80;52.90;;;;;;5074496;28;20210;-67
2024/01/31 06:56:54;;;;;;;3.03;2.60;;;20.80;52.80;;;;;;5074086;28;20218;-69
2024/01/31 06:59:19;;;;;;;2.40;2.20;;;20.80;52.80;;;;;;5074283;28;20170;-69
2024/01/31 07:01:45;;;;;;;2.40;2.20;;;20.80;52.70;;;;;;5055935;28;20198;-68
2024/01/31 07:04:11;;;;;;;2.23;2.00;;;20.80;52.70;;;;;;5074261;28;20177;-68
2024/01/31 07:06:36;;;;;;;2.30;2.10;;;20.90;52.80;;;;;;5073927;28;20178;-69
2024/01/31 07:09:02;;;;;;;2.40;2.20;;;20.90;52.80;;;;;;5056194;28;20190;-70
2024/01/31 07:11:28;;;;;;;2.60;2.40;;;20.90;52.80;;;;;;5074004;28;20197;-68
2024/01/31 07:13:54;;;;;;;2.60;2.20;;;20.90;52.70;;;;;;5074047;28;20446;-69
2024/01/31 07:16:19;;;;;;;2.83;2.63;;;20.90;52.70;;;;;;5073259;28;20233;-69
2024/01/31 07:18:45;;;;;;;3.13;2.80;;;20.90;52.70;;;;;;5073848;28;20678;-70
2024/01/31 07:21:22;;;;;;;2.60;2.23;;;20.90;52.70;;;;;;5073886;28;20198;-69
2024/01/31 07:23:47;;;;;;;2.57;2.37;;;20.90;52.70;;;;;;5073522;28;20170;-69
2024/01/31 07:26:23;;;;;;;3.03;2.80;;;20.90;52.70;;;;;;5073479;28;20406;-69
2024/01/31 07:28:50;;;;;;;2.83;2.53;;;20.90;52.70;;;;;;5073561;28;20158;-69
2024/01/31 07:31:15;;;;;;;2.90;2.60;;;20.90;52.70;;;;;;5073554;28;20459;-68
2024/01/31 07:33:41;;;;;;;2.50;2.30;;;20.90;52.70;;;;;;5073755;28;20448;-69
2024/01/31 07:36:07;;;;;;;3.20;2.97;;;20.90;52.70;;;;;;5074005;28;20175;-69
2024/01/31 07:38:32;;;;;;;2.57;2.37;;;20.90;52.70;;;;;;5073803;28;20553;-69
2024/01/31 07:40:58;;;;;;;3.00;2.30;;;20.90;52.70;;;;;;5055900;28;20436;-70
2024/01/31 07:43:24;;;;;;;3.40;2.60;;;20.90;52.70;;;;;;5073430;28;20651;-69
2024/01/31 07:45:50;;;;;;;2.70;2.47;;;20.90;52.60;;;;;;5073117;28;20684;-69
2024/01/31 07:48:15;;;;;;;2.33;2.13;;;20.90;52.60;;;;;;5073100;28;20183;-69
2024/01/31 07:50:41;;;;;;;2.80;2.30;;;21.00;52.70;;;;;;5072990;28;20202;-69
2024/01/31 07:53:06;;;;;;;2.53;2.27;;;21.00;52.70;;;;;;5072959;28;20252;-69
2024/01/31 07:55:32;;;;;;;2.73;2.50;;;21.00;52.70;;;;;;5081946;28;20186;-69
2024/01/31 07:57:57;;;;;;;2.97;2.60;;;21.00;52.70;;;;;;5079381;28;20587;-69
2024/01/31 08:00:24;;;;;;;3.20;2.40;;;21.00;52.70;;;;;;5072580;28;20201;-68
2024/01/31 08:02:49;;;;;;;2.80;2.60;;;21.00;52.70;;;;;;5072632;28;20174;-69
2024/01/31 08:05:15;;;;;;;2.47;2.27;;;21.00;52.70;;;;;;5072867;28;20405;-69
2024/01/31 08:07:44;;;;;;;2.57;2.30;;;21.00;52.70;;;;;;5072650;28;20212;-69
2024/01/31 08:10:12;;;;;;;2.40;2.20;;;21.00;52.70;;;;;;5072879;28;20704;-69
2024/01/31 08:12:37;;;;;;;2.47;2.27;;;21.00;52.70;;;;;;5054687;28;20408;-69
2024/01/31 08:15:03;;;;;;;2.50;2.20;;;21.00;52.70;;;;;;5054399;28;20416;-68
2024/01/31 08:17:29;;;;;;;2.63;2.43;;;21.00;52.70;;;;;;5072384;28;20242;-69
2024/01/31 08:19:55;;;;;;;2.27;2.07;;;21.00;52.70;;;;;;5072465;28;20797;-69
2024/01/31 08:22:20;;;;;;;2.60;2.40;;;21.00;52.70;;;;;;5072504;28;20170;-69
2024/01/31 08:24:46;;;;;;;2.60;2.23;;;21.00;52.70;;;;;;5072728;28;20162;-69
2024/01/31 08:27:11;;;;;;;2.60;2.40;;;21.00;52.70;;;;;;5072504;28;20178;-68
2024/01/31 08:29:38;;;;;;;2.67;2.23;;;21.00;52.70;;;;;;5072264;28;20170;-69
2024/01/31 08:32:04;;;;;;;2.47;2.13;;;21.00;52.70;;;;;;5072267;28;20209;-69
2024/01/31 08:34:29;;;;;;;2.37;2.13;;;21.00;52.70;;;;;;5072198;28;20823;-68
2024/01/31 08:36:55;;;;;;;2.20;2.00;;;21.00;52.70;;;;;;5072254;28;20538;-68
2024/01/31 08:39:22;;;;;;;2.17;1.97;;;21.00;52.70;;;;;;5054144;28;20171;-69
2024/01/31 08:41:48;;;;;;;2.73;2.20;;;21.00;52.70;;;;;;5071788;28;20186;-69
2024/01/31 08:44:15;;;;;;;2.80;2.60;;;21.00;52.70;;;;;;5071907;28;20432;-69
2024/01/31 08:46:40;;;;;;;3.67;2.33;;;21.00;52.80;;;;;;5053971;28;20200;-70
2024/01/31 08:49:06;;;;;;;2.97;2.10;;;21.00;52.80;;;;;;5071904;28;20408;-70
2024/01/31 08:51:33;;;;;;;2.23;2.03;;;21.00;53.10;;;;;;5071915;28;20602;-68
2024/01/31 08:53:58;;;;;;;2.60;2.40;;;21.00;52.80;;;;;;5071703;28;20173;-70
2024/01/31 08:56:24;;;;;;;2.40;2.20;;;21.00;52.90;;;;;;5071382;28;20962;-69
2024/01/31 08:58:50;;;;;;;2.60;2.40;;;21.00;52.90;;;;;;5072069;28;20208;-69
2024/01/31 09:01:16;;;;;;;2.43;2.23;;;21.00;52.90;;;;;;5071549;28;20627;-69
2024/01/31 09:03:41;;;;;;;2.13;1.93;;;21.00;52.90;;;;;;5071683;28;20170;-68
2024/01/31 09:06:07;;;;;;;3.00;2.67;;;21.00;52.90;;;;;;5070483;28;20198;-68
2024/01/31 09:08:32;;;;;;;3.00;2.33;;;21.00;52.90;;;;;;5071571;28;20174;-69
2024/01/31 09:10:58;;;;;;;2.40;2.20;;;21.00;52.90;;;;;;5071444;28;20186;-69
2024/01/31 09:13:24;;;;;;;3.23;2.40;;;21.00;52.90;;;;;;5071567;28;20171;-67
2024/01/31 09:15:50;;;;;;;2.70;1.93;;;21.00;52.90;;;;;;5053301;28;20185;-69
2024/01/31 09:18:15;;;;;;;2.30;2.10;;;21.00;52.90;;;;;;5071027;28;20474;-69
2024/01/31 09:20:41;;;;;;;2.30;2.10;;;21.00;52.90;;;;;;5071415;28;20190;-69
2024/01/31 09:23:06;;;;;;;2.33;2.13;;;21.00;52.90;;;;;;5053289;28;20583;-69
2024/01/31 09:25:33;;;;;;;2.30;2.10;;;21.00;52.90;;;;;;5071047;28;20178;-69
2024/01/31 09:27:58;;;;;;;1.97;1.87;;;21.00;52.90;;;;;;5070991;28;20170;-68
2024/01/31 09:30:24;;;;;;;2.30;2.10;;;21.00;52.90;;;;;;5071093;28;20954;-70
2024/01/31 09:32:50;;;;;;;2.63;2.43;;;21.00;52.90;;;;;;5053212;28;20174;-69
2024/01/31 09:35:15;;;;;;;2.30;2.10;;;21.10;53.00;;;;;;5071030;28;20633;-70
2024/01/31 09:37:41;;;;;;;2.73;2.53;;;21.00;52.90;;;;;;5070916;28;20254;-68
2024/01/31 09:40:07;;;;;;;2.20;2.00;;;21.00;53.00;;;;;;5070719;28;20186;-69
2024/01/31 09:42:33;;;;;;;2.20;2.00;;;21.00;53.00;;;;;;5070998;28;20405;-69
2024/01/31 09:45:01;;;;;;;4.90;2.47;;;21.00;53.00;;;;;;5052649;28;20424;-70
2024/01/31 09:47:28;;;;;;;2.20;2.00;;;21.00;53.00;;;;;;5071032;28;20595;-69
2024/01/31 09:49:55;;;;;;;3.13;2.50;;;21.00;53.00;;;;;;5052855;28;20472;-68
2024/01/31 09:52:29;;;;;;;2.77;2.30;;;21.00;53.00;;;;;;5070822;28;20553;-69
2024/01/31 09:54:57;;;;;;;2.83;2.60;;;21.00;53.00;;;;;;5070977;28;20414;-69
2024/01/31 09:57:25;;;;;;;2.60;2.40;;;21.00;53.00;;;;;;5071504;28;20456;-68
2024/01/31 09:59:51;;;;;;;2.80;2.60;;;21.00;53.00;;;;;;5071595;28;20421;-69
2024/01/31 10:02:17;;;;;;;3.20;2.87;;;21.00;53.00;;;;;;5071519;28;20407;-70
2024/01/31 10:04:49;;;;;;;3.77;3.13;;;21.00;53.00;;;;;;5071194;28;20412;-69
2024/01/31 10:07:30;;;;;;;3.60;3.13;;;21.00;52.90;;;;;;5053441;28;20420;-69
2024/01/31 10:09:56;;;;;;;3.00;2.80;;;21.00;53.00;;;;;;5071500;28;20443;-69
2024/01/31 10:12:23;;;;;;;4.63;2.90;;;21.00;53.00;;;;;;5071224;28;20919;-69
2024/01/31 10:14:51;;;;;;;4.70;2.73;;;21.00;53.00;;;;;;5071441;28;20560;-69
2024/01/31 10:17:17;;;;;;;2.77;2.57;;;21.00;53.00;;;;;;5070176;28;20522;-69
2024/01/31 10:19:43;;;;;;;3.27;2.97;;;21.00;53.00;;;;;;5070398;28;20409;-70
2024/01/31 10:22:08;;;;;;;4.43;2.97;;;21.00;53.00;;;;;;5070505;28;20438;-69
2024/01/31 10:24:34;;;;;;;3.90;3.07;;;21.00;53.00;;;;;;5070729;28;20616;-69
2024/01/31 10:27:03;;;;;;;3.00;2.60;;;21.00;53.00;;;;;;5070413;28;20180;-69
2024/01/31 10:29:29;;;;;;;3.07;2.47;;;21.00;53.00;;;;;;5070371;28;20170;-70
2024/01/31 10:31:55;;;;;;;2.83;2.47;;;21.00;53.10;;;;;;5070094;28;20434;-70
2024/01/31 10:34:22;;;;;;;3.00;2.70;;;21.00;53.10;;;;;;5070198;28;20528;-68
2024/01/31 10:36:49;;;;;;;3.17;2.63;;;21.00;53.10;;;;;;5070855;28;20576;-68
2024/01/31 10:39:20;;;;;;;3.27;2.97;;;21.00;53.10;;;;;;5071083;28;20400;-67
2024/01/31 10:41:47;;;;;;;2.77;2.50;;;21.00;53.10;;;;;;5070470;28;21004;-68
2024/01/31 10:44:14;;;;;;;3.37;2.70;;;21.00;53.10;;;;;;5070112;28;20400;-69
2024/01/31 10:46:41;;;;;;;2.50;2.20;;;21.00;53.10;;;;;;5070315;28;20412;-69
2024/01/31 10:49:06;;;;;;;3.27;2.97;;;21.00;53.10;;;;;;5070141;28;20755;-69
2024/01/31 10:51:34;;;;;;;2.53;2.33;;;21.00;53.10;;;;;;5070028;28;20439;-68
2024/01/31 10:54:02;;;;;;;3.80;2.50;;;21.00;53.20;;;;;;5052186;28;20189;-69
2024/01/31 10:56:28;;;;;;;3.20;2.90;;;21.00;53.20;;;;;;5070018;28;20482;-69
2024/01/31 10:58:57;;;;;;;3.87;2.70;;;21.00;53.20;;;;;;5070145;28;20412;-67
2024/01/31 11:01:28;;;;;;;3.20;2.90;;;21.00;53.20;;;;;;5069968;28;20477;-67
2024/01/31 11:03:54;;;;;;;3.90;2.43;;;21.00;53.30;;;;;;5070060;28;20404;-68
2024/01/31 11:06:19;;;;;;;3.10;2.60;;;21.00;53.20;;;;;;5069885;28;20408;-69
2024/01/31 11:08:47;;;;;;;3.87;2.60;;;21.00;53.30;;;;;;5069934;28;20219;-69
2024/01/31 11:11:13;;;;;;;4.27;2.60;;;21.00;53.30;;;;;;5069785;28;20187;-68
2024/01/31 11:13:39;;;;;;;3.60;2.27;;;21.00;53.30;;;;;;5069871;28;20435;-69
2024/01/31 11:16:05;;;;;;;3.73;2.43;;;21.00;53.30;;;;;;5069694;28;20194;-68
2024/01/31 11:18:31;;;;;;;3.00;2.70;;;21.00;53.30;;;;;;5051469;28;20206;-70
2024/01/31 11:21:05;;;;;;;2.97;2.30;;;21.00;53.30;;;;;;5069832;28;20424;-68
2024/01/31 11:23:31;;;;;;;2.30;2.10;;;21.00;53.40;;;;;;5069765;28;20396;-69
2024/01/31 11:26:00;;;;;;;2.53;2.33;;;21.00;53.40;;;;;;5069758;28;20417;-69
2024/01/31 11:28:26;;;;;;;2.60;2.37;;;21.00;53.40;;;;;;5069761;28;20216;-70
2024/01/31 11:30:52;;;;;;;3.00;2.70;;;21.00;53.40;;;;;;5073240;28;20420;-69
2024/01/31 11:33:18;;;;;;;3.20;2.30;;;21.00;53.40;;;;;;5073265;28;20404;-68
2024/01/31 11:35:45;;;;;;;3.67;2.83;;;21.00;53.40;;;;;;5073270;28;20914;-69
2024/01/31 11:38:11;;;;;;;2.67;2.47;;;21.00;53.40;;;;;;5073294;28;20883;-69
2024/01/31 11:40:37;;;;;;;2.70;2.17;;;21.00;53.40;;;;;;5073207;28;20865;-68
2024/01/31 11:43:04;;;;;;;3.30;2.60;;;21.00;53.40;;;;;;5073067;28;20409;-69
2024/01/31 11:45:30;;;;;;;2.90;2.40;;;21.00;53.40;;;;;;5072916;28;20552;-70
2024/01/31 11:47:57;;;;;;;6.37;2.60;;;21.00;53.40;;;;;;5073148;28;20408;-69
2024/01/31 11:50:25;;;;;;;2.90;2.30;;;21.00;53.40;;;;;;5072846;28;20512;-69
2024/01/31 11:52:51;;;;;;;3.23;2.60;;;21.00;53.40;;;;;;5072898;28;20411;-68
2024/01/31 11:55:25;;;;;;;4.30;3.20;;;21.00;53.40;;;;;;5054638;28;20437;-68
2024/01/31 11:57:51;;;;;;;2.60;2.33;;;21.00;53.40;;;;;;5072592;28;20543;-69
2024/01/31 12:00:18;;;;;;;2.70;2.50;;;21.00;53.40;;;;;;5072544;28;20511;-69
2024/01/31 12:02:44;;;;;;;3.30;2.77;;;21.00;53.40;;;;;;5073069;28;20415;-69
2024/01/31 12:05:10;;;;;;;2.27;2.07;;;21.00;53.40;;;;;;5072591;28;20412;-69
2024/01/31 12:07:36;;;;;;;3.70;2.33;;;21.00;53.40;;;;;;5072663;28;20447;-69
2024/01/31 12:10:03;;;;;;;3.70;2.47;;;21.00;53.40;;;;;;5072554;28;20569;-67
2024/01/31 12:12:35;;;;;;;3.03;2.40;;;21.00;53.50;;;;;;5072640;28;21014;-68
2024/01/31 12:15:01;;;;;;;2.90;2.50;;;21.00;53.40;;;;;;5072383;28;20456;-68
2024/01/31 12:17:27;;;;;;;3.60;2.53;;;21.00;53.50;;;;;;5072528;28;20472;-68
2024/01/31 12:20:08;;;;;;;2.87;2.30;;;21.00;53.50;;;;;;5072250;28;20405;-68
2024/01/31 12:22:36;;;;;;;3.90;2.90;;;21.00;53.40;;;;;;5072062;28;20404;-68
2024/01/31 12:25:03;;;;;;;3.47;3.03;;;21.00;53.50;;;;;;5072305;28;20953;-68
2024/01/31 12:27:28;;;;;;;3.13;2.83;;;21.00;53.50;;;;;;5072203;28;20405;-68
2024/01/31 12:29:54;;;;;;;3.23;2.63;;;21.00;53.50;;;;;;5054388;28;21077;-69
2024/01/31 12:32:19;;;;;;;2.07;1.87;;;21.00;53.50;;;;;;5072310;28;20261;-68
2024/01/31 12:34:45;;;;;;;2.83;2.27;;;21.00;53.50;;;;;;5072081;28;20174;-69
2024/01/31 12:37:11;;;;;;;2.60;2.33;;;21.00;53.50;;;;;;5072018;28;20206;-69
2024/01/31 12:39:36;;;;;;;3.30;2.67;;;21.00;53.50;;;;;;5071887;28;20166;-69
2024/01/31 12:42:03;;;;;;;4.40;2.10;;;21.00;53.50;;;;;;5071977;28;20537;-68